YBTL

Townsville Airport

Airport
ICAO code
YBTL
IATA Code
TSV
Summary
ICAO Region
APAC
ICAO Territory
Location

, Queensland

Serving
Townsville
Elevation
18 ft
Coordinates
19° 15' 9" S , 146° 45' 55" E
Metar
YBTL 202300Z 11008KT 9999 SCT024 BKN240 29/25 Q1012 RF00.0/001.0

Airport map

Aerial View

SKYbrary Partners:

Safety knowledge contributed by: